Time;durP1;ratioP1;P1;durP2;ratioP2;P2;SDS_P1;SDS_P2;PMS_P1;PMS_P2;Temp;Humidity;BMP_temperature;BMP_pressure;BME280_temperature;BME280_humidity;BME280_pressure;Samples;Min_cycle;Max_cycle;Signal;HPM_P1;HPM_P2
2021/04/21 00:02:20;;;;;;;11.10;5.55;;;11.80;99.90;;;;;;5013833;28;20199;-77
2021/04/21 00:04:48;;;;;;;7.88;6.80;;;11.80;99.90;;;;;;5013724;28;20625;-77
2021/04/21 00:07:22;;;;;;;8.68;7.78;;;11.80;99.90;;;;;;5013612;28;20545;-77
2021/04/21 00:09:50;;;;;;;12.63;7.72;;;11.80;99.90;;;;;;5013607;28;20646;-77
2021/04/21 00:12:17;;;;;;;9.70;6.72;;;11.70;99.90;;;;;;5013830;28;20258;-77
2021/04/21 00:14:45;;;;;;;12.48;6.13;;;11.90;99.90;;;;;;5013513;28;20160;-78
2021/04/21 00:17:12;;;;;;;6.88;6.00;;;11.80;99.90;;;;;;5012952;28;20243;-78
2021/04/21 00:19:40;;;;;;;8.93;5.82;;;11.90;99.90;;;;;;5013482;28;20247;-78
2021/04/21 00:22:08;;;;;;;11.57;6.18;;;12.00;99.90;;;;;;5013444;28;20223;-78
2021/04/21 00:24:37;;;;;;;13.25;6.43;;;11.90;99.90;;;;;;5013414;28;20176;-78
2021/04/21 00:27:04;;;;;;;6.25;5.07;;;11.80;99.90;;;;;;5013377;28;20254;-77
2021/04/21 00:29:30;;;;;;;17.13;8.95;;;11.70;99.90;;;;;;5013543;28;20211;-77
2021/04/21 00:31:59;;;;;;;7.78;6.22;;;11.70;99.90;;;;;;5013281;28;20204;-78
2021/04/21 00:34:26;;;;;;;18.88;6.05;;;11.50;99.90;;;;;;5013417;28;20163;-78
2021/04/21 00:36:54;;;;;;;18.42;6.50;;;11.60;99.90;;;;;;5013170;28;20197;-78
2021/04/21 00:39:21;;;;;;;10.45;4.65;;;11.50;99.90;;;;;;5013312;28;20187;-78
2021/04/21 00:42:02;;;;;;;10.30;6.45;;;11.60;99.90;;;;;;5028469;28;20168;-78
2021/04/21 00:44:49;;;;;;;5.68;5.13;;;11.60;99.90;;;;;;5013304;28;20601;-77
2021/04/21 00:47:21;;;;;;;7.80;5.72;;;11.60;99.90;;;;;;5011944;28;20192;-78
2021/04/21 00:50:14;;;;;;;8.40;5.82;;;11.60;99.90;;;;;;5013171;28;20624;-77
2021/04/21 00:52:43;;;;;;;11.88;7.80;;;11.60;99.90;;;;;;5013073;28;20200;-78
2021/04/21 00:55:17;;;;;;;9.05;4.50;;;11.80;99.90;;;;;;5013177;28;20197;-78
2021/04/21 00:58:06;;;;;;;15.73;7.55;;;11.90;99.90;;;;;;5013051;28;20619;-78
2021/04/21 01:00:44;;;;;;;9.55;6.20;;;11.90;99.90;;;;;;5028073;28;20560;-78
2021/04/21 01:03:12;;;;;;;23.45;7.63;;;11.80;99.90;;;;;;5028396;28;20165;-78
2021/04/21 01:05:50;;;;;;;13.52;5.53;;;12.00;99.90;;;;;;5012916;28;20165;-78
2021/04/21 01:08:23;;;;;;;25.58;6.53;;;12.10;99.90;;;;;;5012952;28;20647;-77
2021/04/21 01:11:23;;;;;;;8.95;4.75;;;12.10;99.90;;;;;;5013127;28;20195;-77
2021/04/21 01:13:57;;;;;;;6.05;5.63;;;12.20;99.90;;;;;;5013074;28;20165;-77
2021/04/21 01:16:26;;;;;;;6.10;5.45;;;12.10;99.90;;;;;;5012904;28;20184;-77
2021/04/21 01:18:54;;;;;;;17.75;6.72;;;11.90;99.90;;;;;;5013000;28;20172;-78
2021/04/21 01:21:37;;;;;;;17.92;7.57;;;12.00;99.90;;;;;;5013058;28;20193;-76
2021/04/21 01:24:14;;;;;;;10.88;4.90;;;11.80;99.90;;;;;;5012984;28;20164;-77
2021/04/21 01:27:20;;;;;;;6.40;5.45;;;11.70;99.90;;;;;;5012741;28;20283;-78
2021/04/21 01:29:50;;;;;;;40.10;6.97;;;11.70;99.90;;;;;;5012346;28;20199;-78
2021/04/21 01:32:20;;;;;;;17.80;5.78;;;11.60;99.90;;;;;;5014377;28;20261;-78
2021/04/21 01:34:48;;;;;;;9.60;4.35;;;11.60;99.90;;;;;;5015288;28;20243;-77
2021/04/21 01:37:20;;;;;;;5.90;5.35;;;11.60;99.90;;;;;;5016316;28;20205;-78
2021/04/21 01:40:03;;;;;;;4.30;3.90;;;11.60;99.90;;;;;;5016450;28;20176;-77
2021/04/21 01:42:34;;;;;;;21.65;6.97;;;11.60;99.90;;;;;;5016480;28;20177;-77
2021/04/21 01:45:00;;;;;;;19.40;7.50;;;11.70;99.90;;;;;;5016194;28;20168;-76
2021/04/21 01:47:26;;;;;;;6.88;4.15;;;11.90;99.90;;;;;;5016089;28;20180;-77
2021/04/21 01:49:57;;;;;;;5.78;5.22;;;11.90;99.90;;;;;;5016074;28;20240;-76
2021/04/21 01:52:43;;;;;;;9.55;7.10;;;11.80;99.90;;;;;;5015922;28;20310;-76
2021/04/21 01:55:20;;;;;;;11.35;6.18;;;11.70;99.90;;;;;;5015983;28;20172;-76
2021/04/21 01:57:55;;;;;;;20.08;6.97;;;11.60;99.90;;;;;;5015967;28;20188;-77
2021/04/21 02:00:35;;;;;;;3.33;3.03;;;11.50;99.90;;;;;;5015705;28;20707;-76
2021/04/21 02:03:33;;;;;;;12.02;4.90;;;11.50;99.90;;;;;;5015900;28;20687;-77
2021/04/21 02:06:38;;;;;;;6.97;5.18;;;11.50;99.90;;;;;;5015644;28;20223;-77
2021/04/21 02:09:22;;;;;;;9.25;4.63;;;11.60;99.90;;;;;;5015848;28;20171;-76
2021/04/21 02:12:02;;;;;;;6.03;4.90;;;11.50;99.90;;;;;;5014463;28;20219;-77
2021/04/21 02:14:36;;;;;;;10.60;7.63;;;11.30;99.90;;;;;;5015745;28;20161;-76
2021/04/21 02:17:26;;;;;;;17.40;6.65;;;11.10;99.90;;;;;;5015592;28;20530;-76
2021/04/21 02:20:06;;;;;;;9.23;5.75;;;11.10;99.90;;;;;;5015553;28;20161;-77
2021/04/21 02:23:06;;;;;;;14.85;6.10;;;11.10;99.90;;;;;;5015625;28;20171;-79
2021/04/21 02:25:33;;;;;;;6.10;5.53;;;11.10;99.90;;;;;;5015391;28;20207;-77
2021/04/21 02:28:22;;;;;;;14.52;7.13;;;11.00;99.90;;;;;;5015618;28;20176;-76
2021/04/21 02:31:09;;;;;;;16.48;6.97;;;11.00;99.90;;;;;;5015773;28;20251;-76
2021/04/21 02:33:51;;;;;;;7.03;5.90;;;11.10;99.90;;;;;;5015221;28;20176;-76
2021/04/21 02:36:28;;;;;;;7.38;5.38;;;11.00;99.90;;;;;;5015137;28;20235;-78
2021/04/21 02:39:06;;;;;;;7.72;5.85;;;11.10;99.90;;;;;;5015154;28;20524;-76
2021/04/21 02:41:44;;;;;;;25.35;5.00;;;11.30;99.90;;;;;;5014739;28;20675;-77
2021/04/21 02:44:48;;;;;;;7.47;6.63;;;11.50;99.90;;;;;;5015105;28;20199;-76
2021/04/21 02:47:35;;;;;;;12.52;5.85;;;11.50;99.90;;;;;;5014633;28;20262;-77
2021/04/21 02:50:15;;;;;;;14.85;5.78;;;11.70;99.90;;;;;;5014934;28;20169;-77
2021/04/21 02:52:50;;;;;;;13.90;5.28;;;11.70;99.90;;;;;;5014888;28;20188;-78
2021/04/21 02:55:28;;;;;;;12.00;5.75;;;11.90;99.90;;;;;;5014852;28;20168;-76
2021/04/21 02:58:03;;;;;;;7.18;5.07;;;11.80;99.90;;;;;;5030085;28;20278;-77
2021/04/21 03:00:52;;;;;;;10.05;5.65;;;11.90;99.90;;;;;;5014595;28;20219;-77
2021/04/21 03:03:27;;;;;;;7.00;5.28;;;11.80;99.90;;;;;;5013412;28;20187;-76
2021/04/21 03:06:08;;;;;;;13.35;6.85;;;11.80;99.90;;;;;;5014607;28;20188;-76
2021/04/21 03:08:49;;;;;;;3.70;3.53;;;11.70;99.90;;;;;;5014728;28;20179;-77
2021/04/21 03:11:26;;;;;;;8.95;5.57;;;11.50;99.90;;;;;;5014707;28;20188;-78
2021/04/21 03:14:03;;;;;;;9.93;5.93;;;11.50;99.90;;;;;;5014619;28;20203;-76
2021/04/21 03:16:33;;;;;;;13.55;7.10;;;11.60;99.90;;;;;;5014521;28;20220;-77
2021/04/21 03:19:04;;;;;;;13.25;5.03;;;11.70;99.90;;;;;;5029696;28;20160;-76
2021/04/21 03:21:32;;;;;;;5.32;4.82;;;11.80;99.90;;;;;;5014382;28;20212;-76
2021/04/21 03:24:10;;;;;;;9.60;6.32;;;11.90;99.90;;;;;;5014435;28;20156;-76
2021/04/21 03:26:40;;;;;;;6.30;5.78;;;11.70;99.90;;;;;;5014210;28;20302;-76
2021/04/21 03:29:13;;;;;;;14.15;6.03;;;11.50;99.90;;;;;;5014361;28;20165;-77
2021/04/21 03:31:40;;;;;;;5.60;5.00;;;11.50;99.90;;;;;;5014127;28;20199;-75
2021/04/21 03:34:12;;;;;;;10.40;3.13;;;11.40;99.90;;;;;;5014238;28;20172;-76
2021/04/21 03:36:39;;;;;;;12.60;8.55;;;11.50;99.90;;;;;;5014101;28;20196;-76
2021/04/21 03:39:06;;;;;;;9.10;5.50;;;11.50;99.90;;;;;;5014115;28;20199;-76
2021/04/21 03:41:31;;;;;;;8.00;4.47;;;11.60;99.90;;;;;;5029350;28;20172;-79
2021/04/21 03:44:01;;;;;;;8.20;5.07;;;11.70;99.90;;;;;;5013977;28;20161;-76
2021/04/21 03:46:28;;;;;;;14.57;4.07;;;11.50;99.90;;;;;;5013898;28;20279;-78
2021/04/21 03:48:54;;;;;;;12.77;6.65;;;11.90;99.90;;;;;;5013805;28;20176;-76
2021/04/21 03:51:21;;;;;;;18.73;7.80;;;11.90;99.90;;;;;;5013374;28;20197;-77
2021/04/21 03:53:48;;;;;;;14.25;6.40;;;11.90;99.90;;;;;;5013661;28;20161;-76
2021/04/21 03:56:18;;;;;;;8.32;5.70;;;11.60;99.90;;;;;;5028883;28;20185;-78
2021/04/21 03:58:47;;;;;;;11.48;5.53;;;11.70;99.90;;;;;;5013626;28;20663;-76
2021/04/21 04:01:20;;;;;;;11.55;6.20;;;11.90;99.90;;;;;;5013648;28;20224;-76
2021/04/21 04:04:02;;;;;;;12.02;5.97;;;11.90;99.90;;;;;;5013770;28;20192;-76
2021/04/21 04:06:47;;;;;;;12.45;5.20;;;11.80;99.90;;;;;;5013469;28;20597;-76
2021/04/21 04:09:14;;;;;;;5.25;3.53;;;11.80;99.90;;;;;;5013563;28;20180;-76
2021/04/21 04:11:47;;;;;;;13.98;7.15;;;11.80;99.90;;;;;;5013366;28;20199;-76
2021/04/21 04:14:29;;;;;;;7.63;4.90;;;11.80;99.90;;;;;;5013699;28;20188;-76
2021/04/21 04:17:03;;;;;;;19.55;7.15;;;11.90;99.90;;;;;;5013479;28;20196;-76
2021/04/21 04:19:32;;;;;;;14.52;5.55;;;11.70;99.90;;;;;;5013427;28;20195;-77
2021/04/21 04:22:17;;;;;;;40.65;6.75;;;11.70;99.90;;;;;;5028627;28;20176;-76
2021/04/21 04:24:57;;;;;;;7.82;6.32;;;11.70;99.90;;;;;;5013352;28;20168;-76
2021/04/21 04:27:28;;;;;;;18.42;6.85;;;11.90;99.90;;;;;;5028804;28;20924;-76
2021/04/21 04:29:58;;;;;;;13.63;4.72;;;11.90;99.90;;;;;;5013395;28;20173;-76
2021/04/21 04:32:25;;;;;;;9.45;5.55;;;12.10;99.90;;;;;;5013129;28;20307;-76
2021/04/21 04:34:57;;;;;;;6.70;4.22;;;12.30;99.90;;;;;;5028385;28;20625;-76
2021/04/21 04:37:25;;;;;;;21.75;6.30;;;12.30;99.90;;;;;;5028453;28;20261;-75
2021/04/21 04:39:51;;;;;;;37.47;7.78;;;12.40;99.90;;;;;;5013173;28;20215;-76
2021/04/21 04:42:17;;;;;;;24.73;5.07;;;12.20;99.90;;;;;;5013273;28;20203;-76
2021/04/21 04:44:45;;;;;;;10.13;6.15;;;12.30;99.90;;;;;;5013134;28;20160;-75
2021/04/21 04:47:32;;;;;;;6.88;5.22;;;12.30;99.90;;;;;;5013179;28;20188;-75
2021/04/21 04:50:08;;;;;;;5.32;4.82;;;12.30;99.90;;;;;;5012957;28;20192;-75
2021/04/21 04:52:43;;;;;;;21.17;7.07;;;12.20;99.90;;;;;;5012989;28;20238;-76
2021/04/21 04:55:11;;;;;;;9.15;4.28;;;12.10;99.90;;;;;;5013279;28;20151;-75
2021/04/21 04:57:42;;;;;;;11.10;5.28;;;12.10;99.90;;;;;;5012890;28;20197;-75
2021/04/21 05:00:11;;;;;;;10.45;5.95;;;12.10;99.90;;;;;;5012833;28;20208;-75
2021/04/21 05:02:57;;;;;;;5.00;4.35;;;12.10;99.90;;;;;;5013020;28;20230;-76
2021/04/21 05:05:24;;;;;;;7.25;5.40;;;12.10;99.90;;;;;;5017203;28;20513;-75
2021/04/21 05:08:03;;;;;;;7.55;5.05;;;12.10;99.90;;;;;;5017289;28;20192;-76
2021/04/21 05:10:47;;;;;;;7.47;4.47;;;12.20;99.90;;;;;;5017315;28;20164;-76
2021/04/21 05:13:16;;;;;;;4.43;3.08;;;12.30;99.90;;;;;;5032269;28;20200;-77
2021/04/21 05:15:51;;;;;;;5.03;3.90;;;12.20;99.90;;;;;;5036265;28;20199;-74
2021/04/21 05:18:25;;;;;;;3.45;3.25;;;12.40;99.90;;;;;;5036151;28;20160;-75
2021/04/21 05:21:39;;;;;;;7.53;3.88;;;12.60;99.90;;;;;;5034021;28;20152;-75
2021/04/21 05:24:19;;;;;;;5.03;3.33;;;12.50;99.90;;;;;;5034402;28;20183;-75
2021/04/21 05:27:03;;;;;;;7.55;4.28;;;12.40;99.90;;;;;;5026775;28;20274;-75
2021/04/21 05:30:13;;;;;;;7.60;2.80;;;12.30;99.90;;;;;;5016948;28;20243;-76
2021/04/21 05:33:24;;;;;;;7.65;3.97;;;12.50;99.90;;;;;;5016296;28;20537;-76
2021/04/21 05:36:14;;;;;;;4.45;2.22;;;12.60;99.90;;;;;;5016513;28;20172;-75
2021/04/21 05:39:16;;;;;;;14.75;6.13;;;12.60;99.90;;;;;;5016421;28;20196;-81
2021/04/21 05:42:17;;;;;;;4.88;4.00;;;12.60;99.90;;;;;;5016421;28;20215;-78
2021/04/21 05:45:14;;;;;;;7.05;5.43;;;12.80;99.90;;;;;;5030752;28;20606;-74
2021/04/21 05:47:46;;;;;;;7.50;4.45;;;12.60;99.90;;;;;;5014847;28;20222;-74
2021/04/21 05:50:20;;;;;;;4.95;3.13;;;12.60;99.90;;;;;;5015959;28;20171;-74
2021/04/21 05:53:07;;;;;;;1.58;1.55;;;12.50;99.90;;;;;;5015900;28;20215;-74
2021/04/21 05:55:56;;;;;;;10.23;3.88;;;12.70;99.90;;;;;;5015665;28;20176;-74
2021/04/21 05:58:40;;;;;;;11.32;4.75;;;12.80;99.90;;;;;;5015658;28;20161;-74
2021/04/21 06:01:23;;;;;;;9.48;4.85;;;12.90;99.90;;;;;;5015424;28;20722;-75
2021/04/21 06:03:51;;;;;;;7.82;3.83;;;13.10;99.90;;;;;;5015760;28;20164;-75
2021/04/21 06:06:17;;;;;;;6.55;4.72;;;13.10;99.90;;;;;;5015372;28;20591;-74
2021/04/21 06:08:43;;;;;;;8.63;4.50;;;13.10;99.90;;;;;;5031007;28;20426;-78
2021/04/21 06:11:26;;;;;;;7.95;3.78;;;13.20;99.90;;;;;;5015443;28;20157;-77
2021/04/21 06:13:57;;;;;;;8.32;3.17;;;13.40;99.90;;;;;;5015553;28;20157;-76
2021/04/21 06:16:24;;;;;;;3.75;2.65;;;13.50;99.90;;;;;;5014336;28;20192;-76
2021/04/21 06:18:56;;;;;;;5.50;3.92;;;13.50;99.90;;;;;;5015449;28;20251;-80
2021/04/21 06:21:24;;;;;;;4.88;4.47;;;13.60;99.90;;;;;;5015716;28;20157;-78
2021/04/21 06:23:51;;;;;;;6.65;4.13;;;13.80;99.90;;;;;;5030590;28;20647;-79
2021/04/21 06:26:24;;;;;;;19.08;5.22;;;13.90;99.90;;;;;;5015348;28;20192;-79
2021/04/21 06:29:02;;;;;;;7.18;4.80;;;14.00;99.90;;;;;;5030759;28;20179;-81
2021/04/21 06:31:44;;;;;;;13.00;7.25;;;14.10;99.90;;;;;;5015177;28;20199;-80
2021/04/21 06:34:12;;;;;;;14.48;4.72;;;14.10;99.90;;;;;;5015414;28;20235;-80
2021/04/21 06:36:46;;;;;;;3.75;3.42;;;14.00;99.90;;;;;;5015208;28;20667;-81
2021/04/21 06:39:13;;;;;;;4.50;3.05;;;13.90;99.90;;;;;;5014947;28;20167;-79
2021/04/21 06:41:39;;;;;;;17.88;3.97;;;13.90;99.90;;;;;;5014945;28;20157;-73
2021/04/21 06:44:05;;;;;;;6.35;5.57;;;13.90;99.90;;;;;;5014281;28;20172;-76
2021/04/21 06:46:31;;;;;;;5.63;2.53;;;13.60;99.90;;;;;;5014702;28;20184;-75
2021/04/21 06:49:00;;;;;;;12.35;5.03;;;13.50;99.90;;;;;;5014741;28;20246;-76
2021/04/21 06:51:29;;;;;;;7.20;3.92;;;13.60;99.90;;;;;;5014745;28;20207;-79
2021/04/21 06:53:56;;;;;;;5.25;1.65;;;13.70;99.90;;;;;;5015029;28;20149;-78
2021/04/21 06:56:27;;;;;;;8.85;3.50;;;13.80;99.90;;;;;;5014943;28;20187;-79
2021/04/21 06:58:53;;;;;;;39.05;4.55;;;13.70;99.90;;;;;;5014634;28;20174;-82
2021/04/21 07:01:24;;;;;;;13.13;3.72;;;13.60;99.90;;;;;;5014956;28;20263;-76
2021/04/21 07:03:50;;;;;;;4.05;3.08;;;13.80;99.90;;;;;;5013914;28;20165;-79
2021/04/21 07:06:16;;;;;;;13.45;4.13;;;13.90;99.90;;;;;;5014160;28;20192;-76
2021/04/21 07:08:42;;;;;;;6.75;3.05;;;14.00;99.90;;;;;;5014526;28;20290;-76
2021/04/21 07:11:09;;;;;;;68.57;17.73;;;14.00;99.90;;;;;;5014332;28;20191;-76
2021/04/21 07:13:48;;;;;;;23.25;7.20;;;14.00;99.90;;;;;;5014279;28;20168;-77
2021/04/21 07:16:27;;;;;;;20.83;4.68;;;14.00;99.90;;;;;;5014146;28;20184;-78
2021/04/21 07:19:04;;;;;;;9.93;3.22;;;13.80;99.90;;;;;;5014487;28;20176;-77
2021/04/21 07:21:31;;;;;;;7.15;4.75;;;13.90;99.90;;;;;;5014197;28;20655;-78
2021/04/21 07:24:02;;;;;;;4.85;2.88;;;13.70;99.90;;;;;;5014135;28;20156;-76
2021/04/21 07:26:32;;;;;;;5.55;3.38;;;14.00;99.90;;;;;;5013828;28;20707;-76
2021/04/21 07:28:59;;;;;;;19.45;4.47;;;14.00;99.90;;;;;;5014030;28;20180;-76
2021/04/21 07:31:25;;;;;;;4.30;3.33;;;14.20;99.90;;;;;;5013903;28;20280;-76
2021/04/21 07:33:53;;;;;;;3.70;3.38;;;14.20;99.90;;;;;;5013972;28;20251;-79
2021/04/21 07:36:22;;;;;;;4.00;3.50;;;14.30;99.90;;;;;;5029087;28;20265;-75
2021/04/21 07:39:07;;;;;;;4.80;3.38;;;14.10;99.90;;;;;;5013946;28;20160;-78
2021/04/21 07:41:37;;;;;;;2.92;2.55;;;14.00;99.90;;;;;;5014210;28;20161;-77
2021/04/21 07:44:05;;;;;;;8.93;3.42;;;13.80;99.90;;;;;;5014009;28;20157;-77
2021/04/21 07:46:30;;;;;;;2.33;2.13;;;14.00;99.90;;;;;;5013869;28;20207;-76
2021/04/21 07:48:57;;;;;;;5.05;4.60;;;14.00;99.90;;;;;;5013484;28;20527;-76
2021/04/21 07:51:25;;;;;;;5.47;2.72;;;14.30;99.90;;;;;;5013632;28;20648;-76
2021/04/21 07:54:03;;;;;;;6.18;3.05;;;14.30;99.90;;;;;;5013684;28;20251;-76
2021/04/21 07:56:35;;;;;;;10.77;3.40;;;14.30;99.90;;;;;;5013683;28;20184;-77
2021/04/21 07:59:15;;;;;;;20.48;4.97;;;14.30;99.90;;;;;;5013456;28;20169;-76
2021/04/21 08:01:41;;;;;;;71.40;7.95;;;14.40;99.90;;;;;;5013626;28;20164;-77
2021/04/21 08:04:45;;;;;;;5.85;3.38;;;14.50;99.90;;;;;;5013383;28;20526;-77
2021/04/21 08:07:11;;;;;;;2.65;2.15;;;14.50;99.90;;;;;;5012237;28;20212;-76
2021/04/21 08:09:48;;;;;;;3.17;2.42;;;14.50;99.90;;;;;;5012070;28;20686;-77
2021/04/21 08:12:15;;;;;;;5.03;3.35;;;14.60;99.90;;;;;;5013133;28;20235;-78
2021/04/21 08:14:41;;;;;;;3.35;2.85;;;14.70;99.90;;;;;;5013453;28;20156;-77
2021/04/21 08:17:07;;;;;;;2.25;2.15;;;14.70;99.90;;;;;;5013343;28;20192;-78
2021/04/21 08:19:38;;;;;;;3.92;2.30;;;14.50;99.90;;;;;;5013197;28;20254;-77
2021/04/21 08:22:05;;;;;;;3.08;2.88;;;14.60;99.90;;;;;;5013292;28;20169;-77
2021/04/21 08:24:42;;;;;;;7.50;4.47;;;14.50;99.90;;;;;;5013579;28;20542;-76
2021/04/21 08:27:11;;;;;;;7.53;3.97;;;14.80;99.90;;;;;;5013176;28;20211;-79
2021/04/21 08:29:36;;;;;;;2.15;1.95;;;15.00;99.90;;;;;;5013483;28;20247;-77
2021/04/21 08:32:04;;;;;;;6.32;2.65;;;15.10;99.90;;;;;;5013232;28;20331;-78
2021/04/21 08:34:29;;;;;;;3.40;2.38;;;15.10;99.90;;;;;;5013364;28;20157;-76
2021/04/21 08:36:55;;;;;;;2.67;1.98;;;15.10;99.90;;;;;;5013132;28;20215;-76
2021/04/21 08:39:20;;;;;;;3.75;2.70;;;15.20;99.90;;;;;;5033817;28;20255;-77
2021/04/21 08:41:48;;;;;;;8.52;4.25;;;15.20;99.90;;;;;;5019774;28;20163;-75
2021/04/21 08:44:13;;;;;;;8.48;4.32;;;15.20;99.90;;;;;;5019876;28;20156;-75
2021/04/21 08:46:39;;;;;;;8.93;2.92;;;15.50;99.90;;;;;;5019625;28;20275;-76
2021/04/21 08:49:08;;;;;;;8.55;3.58;;;15.70;99.90;;;;;;5019560;28;20176;-76
2021/04/21 08:51:35;;;;;;;4.50;4.20;;;15.80;99.90;;;;;;5019713;28;20667;-76
2021/04/21 08:54:04;;;;;;;15.50;4.60;;;15.60;99.90;;;;;;5019317;28;20184;-76
2021/04/21 08:56:32;;;;;;;3.83;2.08;;;15.20;99.90;;;;;;5019422;28;20184;-74
2021/04/21 08:58:58;;;;;;;5.65;2.33;;;15.20;99.90;;;;;;5019258;28;20191;-77
2021/04/21 09:01:25;;;;;;;5.10;2.65;;;15.40;99.90;;;;;;5034985;28;20614;-76
2021/04/21 09:03:51;;;;;;;15.40;3.63;;;15.80;99.90;;;;;;5019798;28;20176;-76
2021/04/21 09:06:18;;;;;;;4.25;3.83;;;16.10;99.90;;;;;;5019304;28;20225;-76
2021/04/21 09:08:48;;;;;;;4.57;3.30;;;16.40;99.90;;;;;;5019386;28;20192;-76
2021/04/21 09:11:14;;;;;;;28.55;7.57;;;16.80;99.90;;;;;;5019330;28;20161;-76
2021/04/21 09:13:40;;;;;;;7.78;4.80;;;16.70;99.90;;;;;;5019339;28;20168;-75
2021/04/21 09:16:06;;;;;;;51.40;8.50;;;16.50;99.90;;;;;;5019439;28;20192;-76
2021/04/21 09:18:34;;;;;;;6.32;2.70;;;16.50;99.90;;;;;;5019377;28;20196;-76
2021/04/21 09:21:01;;;;;;;5.15;3.90;;;16.70;99.90;;;;;;5019592;28;20252;-76
2021/04/21 09:23:41;;;;;;;2.83;2.63;;;16.80;99.90;;;;;;5019114;28;20171;-76
2021/04/21 09:26:21;;;;;;;19.35;5.25;;;16.70;99.90;;;;;;5019125;28;20215;-76
2021/04/21 09:28:51;;;;;;;2.75;2.50;;;16.90;99.90;;;;;;5019374;28;20500;-76
2021/04/21 09:31:37;;;;;;;1.60;1.50;;;16.80;99.90;;;;;;5034562;28;20264;-76
2021/04/21 09:34:18;;;;;;;2.85;2.17;;;16.70;99.90;;;;;;5018886;28;20188;-76
2021/04/21 09:36:48;;;;;;;4.25;2.15;;;16.60;99.90;;;;;;5019098;28;20677;-76
2021/04/21 09:39:24;;;;;;;43.80;10.13;;;16.60;99.90;;;;;;5018825;28;20555;-76
2021/04/21 09:41:59;;;;;;;22.10;4.68;;;16.40;99.90;;;;;;5034094;28;20176;-76
2021/04/21 09:44:28;;;;;;;1.63;1.52;;;16.50;99.90;;;;;;5019771;28;20156;-76
2021/04/21 09:46:54;;;;;;;8.15;2.60;;;16.60;99.90;;;;;;5019232;28;20254;-76
2021/04/21 09:49:48;;;;;;;4.18;2.38;;;16.50;99.90;;;;;;5032583;28;20196;-77
2021/04/21 09:52:13;;;;;;;2.65;2.35;;;16.80;99.90;;;;;;5015710;28;20227;-77
2021/04/21 09:54:42;;;;;;;26.60;5.05;;;16.90;99.90;;;;;;5016132;28;20153;-76
2021/04/21 09:57:13;;;;;;;2.00;1.90;;;17.20;99.90;;;;;;5016061;28;20247;-76
2021/04/21 09:59:40;;;;;;;2.58;1.85;;;17.30;99.90;;;;;;5016280;28;20231;-77
2021/04/21 10:02:34;;;;;;;2.45;2.03;;;17.50;99.90;;;;;;5016260;28;20176;-76
2021/04/21 10:05:27;;;;;;;2.83;2.63;;;17.40;99.90;;;;;;5014010;28;20227;-77
2021/04/21 10:08:12;;;;;;;4.80;2.22;;;17.10;99.90;;;;;;5016120;28;20291;-76
2021/04/21 10:10:41;;;;;;;2.63;2.38;;;17.30;99.90;;;;;;5015999;28;20601;-77
2021/04/21 10:13:18;;;;;;;1.80;1.70;;;17.50;99.90;;;;;;5015683;28;20276;-76
2021/04/21 10:15:45;;;;;;;2.25;1.90;;;17.40;99.90;;;;;;5016099;28;20520;-77
2021/04/21 10:18:13;;;;;;;8.13;2.55;;;17.60;99.90;;;;;;5015471;28;20153;-76
2021/04/21 10:20:39;;;;;;;12.18;4.35;;;17.80;99.90;;;;;;5015602;28;20161;-77
2021/04/21 10:23:06;;;;;;;3.08;2.38;;;17.90;99.90;;;;;;5015083;28;20168;-78
2021/04/21 10:25:33;;;;;;;2.58;2.38;;;17.80;99.90;;;;;;5015155;28;20251;-76
2021/04/21 10:27:59;;;;;;;4.72;2.95;;;17.50;99.90;;;;;;5013927;28;20176;-77
2021/04/21 10:30:25;;;;;;;31.55;3.17;;;17.40;99.90;;;;;;5015257;28;20204;-77
2021/04/21 10:32:51;;;;;;;2.10;2.00;;;17.40;99.90;;;;;;5014603;28;20251;-77
2021/04/21 10:35:17;;;;;;;2.65;2.13;;;17.50;99.90;;;;;;5015081;28;20169;-78
2021/04/21 10:37:43;;;;;;;5.25;3.63;;;17.70;99.90;;;;;;5014856;28;20226;-78
2021/04/21 10:40:11;;;;;;;6.55;3.45;;;17.90;99.90;;;;;;5014953;28;20244;-76
2021/04/21 10:42:48;;;;;;;2.78;2.53;;;17.80;99.90;;;;;;5014726;28;20191;-76
2021/04/21 10:45:16;;;;;;;2.75;1.88;;;17.70;99.90;;;;;;5015056;28;20208;-76
2021/04/21 10:47:46;;;;;;;2.92;2.55;;;17.80;99.90;;;;;;5015208;28;20268;-76
2021/04/21 10:50:14;;;;;;;6.32;3.00;;;17.90;99.90;;;;;;5014989;28;20173;-75
2021/04/21 10:52:41;;;;;;;3.03;2.10;;;18.00;99.90;;;;;;5029715;28;20571;-76
2021/04/21 10:55:07;;;;;;;4.47;2.67;;;17.90;99.90;;;;;;5015924;28;20227;-75
2021/04/21 10:57:34;;;;;;;5.45;2.63;;;17.90;99.90;;;;;;5016826;28;20644;-76
2021/04/21 11:00:11;;;;;;;2.90;2.65;;;17.70;99.90;;;;;;5016731;28;20223;-76
2021/04/21 11:02:40;;;;;;;7.35;3.40;;;17.50;99.90;;;;;;5031038;28;20190;-76
2021/04/21 11:05:11;;;;;;;5.00;3.58;;;17.30;99.90;;;;;;5031857;28;20160;-75
2021/04/21 11:07:38;;;;;;;10.70;2.85;;;17.40;99.90;;;;;;5032598;28;20203;-75
2021/04/21 11:10:09;;;;;;;2.40;2.03;;;17.40;99.90;;;;;;5030128;28;20156;-76
2021/04/21 11:12:49;;;;;;;10.05;4.45;;;17.30;99.90;;;;;;5028435;28;20208;-77
2021/04/21 11:15:43;;;;;;;1.90;1.80;;;17.60;99.90;;;;;;5029519;28;20225;-77
2021/04/21 11:18:08;;;;;;;4.88;3.15;;;17.60;99.90;;;;;;5015348;28;20187;-76
2021/04/21 11:20:46;;;;;;;1.83;1.73;;;17.60;99.90;;;;;;5015124;28;20559;-77
2021/04/21 11:29:22;;;;;;;6.72;3.28;;;17.80;99.90;;;;;;5014590;28;20169;-78
2021/04/21 11:31:51;;;;;;;3.42;2.75;;;17.70;99.90;;;;;;5014321;28;20303;-77
2021/04/21 11:34:38;;;;;;;13.77;3.15;;;17.90;99.90;;;;;;5013500;28;20176;-79
2021/04/21 11:37:11;;;;;;;4.97;3.53;;;18.00;99.90;;;;;;5030110;28;20247;-77
2021/04/21 11:39:49;;;;;;;5.88;4.18;;;18.30;99.90;;;;;;5014025;28;20169;-77
2021/04/21 11:42:36;;;;;;;3.95;2.97;;;18.10;99.90;;;;;;5013931;28;20613;-77
2021/04/21 11:45:05;;;;;;;4.30;2.78;;;18.10;99.90;;;;;;5014117;28;20165;-78
2021/04/21 11:47:45;;;;;;;4.50;2.03;;;17.90;99.90;;;;;;5013289;28;20622;-78
2021/04/21 11:50:17;;;;;;;29.25;12.18;;;18.00;99.90;;;;;;5029226;28;20172;-77
2021/04/21 11:52:46;;;;;;;5.80;4.53;;;18.30;99.90;;;;;;5013885;28;20204;-78
2021/04/21 11:55:43;;;;;;;2.42;2.10;;;18.20;99.90;;;;;;5013862;28;20161;-78
2021/04/21 11:58:26;;;;;;;5.63;4.03;;;18.10;99.90;;;;;;5013826;28;20164;-79
2021/04/21 12:01:00;;;;;;;6.05;2.97;;;17.90;99.90;;;;;;5013403;28;20243;-77
2021/04/21 12:03:28;;;;;;;31.90;8.13;;;17.70;99.90;;;;;;5013409;28;20177;-77
2021/04/21 12:06:01;;;;;;;4.57;3.45;;;18.00;99.90;;;;;;5013509;28;20185;-77
2021/04/21 12:08:33;;;;;;;5.75;4.00;;;18.10;99.90;;;;;;5013477;28;20192;-78
2021/04/21 12:11:04;;;;;;;4.15;2.75;;;18.20;99.90;;;;;;5013759;28;20624;-78
2021/04/21 12:13:31;;;;;;;6.97;3.85;;;17.90;99.90;;;;;;5012641;28;20207;-77
2021/04/21 12:16:08;;;;;;;6.30;4.63;;;17.80;99.90;;;;;;5013420;28;20184;-79
2021/04/21 12:18:41;;;;;;;6.30;3.80;;;17.70;99.90;;;;;;5013513;28;20176;-78
2021/04/21 12:21:16;;;;;;;39.25;4.22;;;17.60;99.90;;;;;;5013487;28;20160;-77
2021/04/21 12:23:44;;;;;;;8.90;3.58;;;17.30;99.90;;;;;;5013553;28;20179;-77
2021/04/21 12:26:26;;;;;;;4.93;3.35;;;17.40;99.90;;;;;;5028294;28;20181;-76
2021/04/21 12:29:01;;;;;;;7.57;4.30;;;17.30;99.90;;;;;;5013190;28;20184;-76
2021/04/21 12:31:29;;;;;;;4.55;3.30;;;17.20;99.90;;;;;;5013177;28;20161;-76
2021/04/21 12:33:56;;;;;;;8.82;2.92;;;17.20;99.90;;;;;;5013321;28;20195;-76
2021/04/21 12:36:24;;;;;;;4.32;3.47;;;17.30;99.90;;;;;;5013078;28;20192;-77
2021/04/21 12:39:13;;;;;;;17.27;4.47;;;17.40;99.90;;;;;;5013042;28;20172;-77
2021/04/21 12:41:44;;;;;;;4.13;2.47;;;17.50;99.90;;;;;;5012019;28;20295;-77
2021/04/21 12:44:20;;;;;;;6.65;3.53;;;17.50;99.90;;;;;;5013034;28;20518;-76
2021/04/21 12:46:49;;;;;;;7.72;3.60;;;17.60;99.90;;;;;;5012906;28;20188;-76
2021/04/21 12:49:15;;;;;;;3.20;1.88;;;17.60;99.90;;;;;;5013139;28;20533;-77
2021/04/21 12:51:46;;;;;;;9.63;2.17;;;17.50;99.90;;;;;;5012496;28;20192;-78
2021/04/21 12:54:30;;;;;;;6.32;2.33;;;17.60;99.90;;;;;;5013149;28;20164;-77
2021/04/21 12:56:55;;;;;;;6.70;2.72;;;17.90;99.90;;;;;;5012784;28;20184;-78
2021/04/21 12:59:21;;;;;;;6.30;2.70;;;18.00;99.90;;;;;;5012654;28;20220;-77
2021/04/21 13:01:47;;;;;;;5.35;2.22;;;18.20;99.90;;;;;;5013003;28;20169;-78
2021/04/21 13:04:16;;;;;;;11.18;4.03;;;18.50;99.90;;;;;;5013144;28;20574;-77
2021/04/21 13:06:44;;;;;;;3.25;2.65;;;18.60;99.90;;;;;;5013085;28;20204;-76
2021/04/21 13:09:18;;;;;;;7.20;2.80;;;18.60;99.90;;;;;;5027979;28;20172;-77
2021/04/21 13:11:46;;;;;;;7.15;2.90;;;18.60;99.30;;;;;;5027994;28;20287;-78
2021/04/21 13:14:12;;;;;;;49.33;17.90;;;18.00;99.70;;;;;;5012790;28;20179;-78
2021/04/21 13:16:40;;;;;;;5.63;3.63;;;17.80;99.70;;;;;;5012610;28;20195;-76
2021/04/21 13:19:28;;;;;;;2.20;1.80;;;17.70;99.90;;;;;;5012818;28;20261;-77
2021/04/21 13:21:57;;;;;;;38.80;8.05;;;17.80;99.90;;;;;;5012692;28;20536;-78
2021/04/21 13:24:23;;;;;;;10.23;3.55;;;17.80;99.50;;;;;;5014009;28;20616;-76